KFAF/FAF METAR and TAF weather

Enter ICAO airport designator
Station Type Date Time Source
KFAF METAR 2022/05/25 00:56 UTC NOAA

KFAF 250056Z 07006KT 6SM -RA BKN007 OVC015 15/14 A3020 RMK AO2A RAE12RAB33 SLPNO P0004 T01490138 $


Station Type Date Time Source
KFAF Decoded METAR 2022/05/25 00:56 UTC NOAA

Fort Eustis / Felker, VA, United States (KFAF) 37-08N 076-37W
May 24, 2022 - 08:56 PM EDT / 2022.05.25 0056 UTC
Wind: from the ENE (070 degrees) at 7 MPH (6 KT):0
Visibility: 6 mile(s):0
Sky conditions: overcast
Weather: light rain
Precipitation last hour: 0.04 inches
Temperature: 58.8 F (14.9 C)
Dew Point: 56.8 F (13.8 C)
Relative Humidity: 93%
Pressure (altimeter): 30.2 in. Hg (1022 hPa)
ob: KFAF 250056Z 07006KT 6SM -RA BKN007 OVC015 15/14 A3020 RMK AO2A RAE12RAB33 SLPNO P0004 T01490138
cycle: 1

Station Type Date Time Source
KFAF TAF 2022/05/24 18:18 UTC NOAA

TAF KFAF 241800Z 2418/2524 03009KT 8000 -RA SCT007 OVC012 QNH3014INS
TEMPO 2418/2424 4800 RA OVC006
BECMG 2505/2506 05012KT 6000 DZ BR OVC006 QNH3016INS TX17/2517Z TN15/2507Z

Example: see airport list